sensor_id;sensor_type;location;lat;lon;timestamp;P1;durP1;ratioP1;P2;durP2;ratioP2
28509;SDS011;15723;55.684;37.928;2022-12-07T00:01:11;25.85;;;10.10;;
28509;SDS011;15723;55.684;37.928;2022-12-07T00:03:40;22.92;;;9.13;;
28509;SDS011;15723;55.684;37.928;2022-12-07T00:06:09;17.25;;;9.40;;
28509;SDS011;15723;55.684;37.928;2022-12-07T00:08:37;27.17;;;10.00;;
28509;SDS011;15723;55.684;37.928;2022-12-07T00:11:05;22.13;;;9.20;;
28509;SDS011;15723;55.684;37.928;2022-12-07T00:13:33;19.60;;;10.20;;
28509;SDS011;15723;55.684;37.928;2022-12-07T00:16:01;25.83;;;9.63;;
28509;SDS011;15723;55.684;37.928;2022-12-07T00:18:29;22.77;;;10.07;;
28509;SDS011;15723;55.684;37.928;2022-12-07T00:21:01;37.38;;;12.77;;
28509;SDS011;15723;55.684;37.928;2022-12-07T00:23:41;32.03;;;13.83;;
28509;SDS011;15723;55.684;37.928;2022-12-07T00:26:10;36.87;;;14.70;;
28509;SDS011;15723;55.684;37.928;2022-12-07T00:28:41;44.35;;;17.92;;
28509;SDS011;15723;55.684;37.928;2022-12-07T00:31:12;33.47;;;13.70;;
28509;SDS011;15723;55.684;37.928;2022-12-07T00:33:38;41.57;;;17.30;;
28509;SDS011;15723;55.684;37.928;2022-12-07T00:36:09;42.03;;;16.40;;
28509;SDS011;15723;55.684;37.928;2022-12-07T00:38:37;24.27;;;9.80;;
28509;SDS011;15723;55.684;37.928;2022-12-07T00:41:05;35.70;;;14.73;;
28509;SDS011;15723;55.684;37.928;2022-12-07T00:43:41;31.00;;;13.03;;
28509;SDS011;15723;55.684;37.928;2022-12-07T00:46:09;31.33;;;13.93;;
28509;SDS011;15723;55.684;37.928;2022-12-07T00:48:36;27.07;;;10.33;;
28509;SDS011;15723;55.684;37.928;2022-12-07T00:51:03;26.10;;;11.30;;
28509;SDS011;15723;55.684;37.928;2022-12-07T00:53:30;20.10;;;9.73;;
28509;SDS011;15723;55.684;37.928;2022-12-07T00:55:56;21.13;;;10.40;;
28509;SDS011;15723;55.684;37.928;2022-12-07T00:58:23;22.83;;;10.63;;
28509;SDS011;15723;55.684;37.928;2022-12-07T01:00:49;22.73;;;9.20;;
28509;SDS011;15723;55.684;37.928;2022-12-07T01:03:15;24.83;;;8.90;;
28509;SDS011;15723;55.684;37.928;2022-12-07T01:05:49;23.90;;;10.02;;
28509;SDS011;15723;55.684;37.928;2022-12-07T01:08:17;21.37;;;9.43;;
28509;SDS011;15723;55.684;37.928;2022-12-07T01:10:43;26.73;;;10.87;;
28509;SDS011;15723;55.684;37.928;2022-12-07T01:13:09;25.13;;;10.23;;
28509;SDS011;15723;55.684;37.928;2022-12-07T01:15:38;20.77;;;10.10;;
28509;SDS011;15723;55.684;37.928;2022-12-07T01:18:05;21.17;;;10.00;;
28509;SDS011;15723;55.684;37.928;2022-12-07T01:20:31;26.87;;;10.50;;
28509;SDS011;15723;55.684;37.928;2022-12-07T01:22:57;25.27;;;10.53;;
28509;SDS011;15723;55.684;37.928;2022-12-07T01:25:23;27.67;;;10.93;;
28509;SDS011;15723;55.684;37.928;2022-12-07T01:27:49;24.73;;;10.10;;
28509;SDS011;15723;55.684;37.928;2022-12-07T01:30:15;23.90;;;9.80;;
28509;SDS011;15723;55.684;37.928;2022-12-07T01:32:42;19.50;;;9.33;;
28509;SDS011;15723;55.684;37.928;2022-12-07T01:35:08;22.70;;;9.77;;
28509;SDS011;15723;55.684;37.928;2022-12-07T01:37:37;24.27;;;10.77;;
28509;SDS011;15723;55.684;37.928;2022-12-07T01:40:05;25.53;;;10.07;;
28509;SDS011;15723;55.684;37.928;2022-12-07T01:42:33;20.53;;;9.13;;
28509;SDS011;15723;55.684;37.928;2022-12-07T01:48:02;30.10;;;15.13;;
28509;SDS011;15723;55.684;37.928;2022-12-07T01:50:30;33.67;;;11.00;;
28509;SDS011;15723;55.684;37.928;2022-12-07T01:52:57;26.83;;;10.13;;
28509;SDS011;15723;55.684;37.928;2022-12-07T01:55:26;23.07;;;11.43;;
28509;SDS011;15723;55.684;37.928;2022-12-07T01:57:53;26.67;;;9.90;;
28509;SDS011;15723;55.684;37.928;2022-12-07T02:00:19;25.53;;;11.10;;
28509;SDS011;15723;55.684;37.928;2022-12-07T02:02:51;22.97;;;10.17;;
28509;SDS011;15723;55.684;37.928;2022-12-07T02:05:21;26.73;;;11.43;;
28509;SDS011;15723;55.684;37.928;2022-12-07T02:07:49;27.73;;;12.50;;
28509;SDS011;15723;55.684;37.928;2022-12-07T02:10:20;28.00;;;11.43;;
28509;SDS011;15723;55.684;37.928;2022-12-07T02:12:52;46.13;;;21.43;;
28509;SDS011;15723;55.684;37.928;2022-12-07T02:15:24;80.00;;;35.57;;
28509;SDS011;15723;55.684;37.928;2022-12-07T02:18:00;86.90;;;40.10;;
28509;SDS011;15723;55.684;37.928;2022-12-07T02:20:44;118.63;;;54.67;;
28509;SDS011;15723;55.684;37.928;2022-12-07T02:23:30;134.87;;;61.67;;
28509;SDS011;15723;55.684;37.928;2022-12-07T02:31:37;93.00;;;39.33;;
28509;SDS011;15723;55.684;37.928;2022-12-07T02:34:21;77.13;;;33.33;;
28509;SDS011;15723;55.684;37.928;2022-12-07T02:36:55;43.53;;;21.33;;
28509;SDS011;15723;55.684;37.928;2022-12-07T02:42:27;21.73;;;10.30;;
28509;SDS011;15723;55.684;37.928;2022-12-07T02:45:08;23.23;;;9.53;;
28509;SDS011;15723;55.684;37.928;2022-12-07T02:47:37;19.63;;;8.67;;
28509;SDS011;15723;55.684;37.928;2022-12-07T02:50:05;18.93;;;8.77;;
28509;SDS011;15723;55.684;37.928;2022-12-07T02:52:32;22.70;;;9.27;;
28509;SDS011;15723;55.684;37.928;2022-12-07T02:54:58;20.20;;;8.63;;
28509;SDS011;15723;55.684;37.928;2022-12-07T03:00:20;26.00;;;9.73;;
28509;SDS011;15723;55.684;37.928;2022-12-07T03:02:51;19.73;;;9.47;;
28509;SDS011;15723;55.684;37.928;2022-12-07T03:05:28;16.88;;;7.60;;
28509;SDS011;15723;55.684;37.928;2022-12-07T03:13:24;20.27;;;8.40;;
28509;SDS011;15723;55.684;37.928;2022-12-07T03:19:03;17.87;;;7.87;;
28509;SDS011;15723;55.684;37.928;2022-12-07T03:21:53;20.70;;;8.27;;
28509;SDS011;15723;55.684;37.928;2022-12-07T03:24:30;17.83;;;8.23;;
28509;SDS011;15723;55.684;37.928;2022-12-07T03:27:03;18.40;;;8.57;;
28509;SDS011;15723;55.684;37.928;2022-12-07T03:29:36;19.50;;;8.40;;
28509;SDS011;15723;55.684;37.928;2022-12-07T03:32:11;18.07;;;8.27;;
28509;SDS011;15723;55.684;37.928;2022-12-07T03:34:47;18.57;;;8.50;;
28509;SDS011;15723;55.684;37.928;2022-12-07T03:37:33;17.27;;;7.57;;
28509;SDS011;15723;55.684;37.928;2022-12-07T03:40:17;17.90;;;8.63;;
28509;SDS011;15723;55.684;37.928;2022-12-07T03:42:50;23.47;;;8.27;;
28509;SDS011;15723;55.684;37.928;2022-12-07T03:45:18;20.87;;;8.93;;
28509;SDS011;15723;55.684;37.928;2022-12-07T03:47:49;17.43;;;7.67;;
28509;SDS011;15723;55.684;37.928;2022-12-07T03:52:56;18.40;;;9.27;;
28509;SDS011;15723;55.684;37.928;2022-12-07T03:55:29;24.38;;;10.07;;
28509;SDS011;15723;55.684;37.928;2022-12-07T03:58:02;19.33;;;8.67;;
28509;SDS011;15723;55.684;37.928;2022-12-07T04:03:00;19.87;;;8.67;;
28509;SDS011;15723;55.684;37.928;2022-12-07T04:05:26;23.13;;;9.10;;
28509;SDS011;15723;55.684;37.928;2022-12-07T04:07:52;22.20;;;9.77;;
28509;SDS011;15723;55.684;37.928;2022-12-07T04:10:19;19.27;;;9.77;;
28509;SDS011;15723;55.684;37.928;2022-12-07T04:12:45;17.90;;;9.17;;
28509;SDS011;15723;55.684;37.928;2022-12-07T04:15:11;19.70;;;9.47;;
28509;SDS011;15723;55.684;37.928;2022-12-07T04:17:38;20.83;;;10.30;;
28509;SDS011;15723;55.684;37.928;2022-12-07T04:20:04;24.57;;;10.43;;
28509;SDS011;15723;55.684;37.928;2022-12-07T04:22:31;24.87;;;10.30;;
28509;SDS011;15723;55.684;37.928;2022-12-07T04:24:57;29.53;;;10.97;;
28509;SDS011;15723;55.684;37.928;2022-12-07T04:27:23;20.33;;;9.57;;
28509;SDS011;15723;55.684;37.928;2022-12-07T04:29:49;21.43;;;9.30;;
28509;SDS011;15723;55.684;37.928;2022-12-07T04:32:15;21.17;;;9.63;;
28509;SDS011;15723;55.684;37.928;2022-12-07T04:34:41;22.43;;;9.47;;
28509;SDS011;15723;55.684;37.928;2022-12-07T04:37:07;29.07;;;9.40;;
28509;SDS011;15723;55.684;37.928;2022-12-07T04:39:34;19.67;;;9.87;;
28509;SDS011;15723;55.684;37.928;2022-12-07T04:42:00;26.53;;;10.13;;
28509;SDS011;15723;55.684;37.928;2022-12-07T04:44:27;20.83;;;9.60;;
28509;SDS011;15723;55.684;37.928;2022-12-07T04:46:54;20.47;;;9.80;;
28509;SDS011;15723;55.684;37.928;2022-12-07T04:49:21;22.90;;;9.87;;
28509;SDS011;15723;55.684;37.928;2022-12-07T04:51:47;24.60;;;10.57;;
28509;SDS011;15723;55.684;37.928;2022-12-07T04:54:14;22.93;;;9.83;;
28509;SDS011;15723;55.684;37.928;2022-12-07T04:56:41;19.40;;;9.60;;
28509;SDS011;15723;55.684;37.928;2022-12-07T04:59:07;31.77;;;10.70;;
28509;SDS011;15723;55.684;37.928;2022-12-07T05:01:35;26.70;;;11.93;;
28509;SDS011;15723;55.684;37.928;2022-12-07T05:04:01;21.37;;;11.53;;
28509;SDS011;15723;55.684;37.928;2022-12-07T05:06:28;27.00;;;11.20;;
28509;SDS011;15723;55.684;37.928;2022-12-07T05:08:54;24.40;;;11.57;;
28509;SDS011;15723;55.684;37.928;2022-12-07T05:11:20;25.80;;;12.83;;
28509;SDS011;15723;55.684;37.928;2022-12-07T05:14:06;19.87;;;11.20;;
28509;SDS011;15723;55.684;37.928;2022-12-07T05:16:47;21.60;;;10.30;;
28509;SDS011;15723;55.684;37.928;2022-12-07T05:19:15;29.37;;;12.07;;
28509;SDS011;15723;55.684;37.928;2022-12-07T05:21:42;22.60;;;10.53;;
28509;SDS011;15723;55.684;37.928;2022-12-07T05:24:09;23.83;;;9.30;;
28509;SDS011;15723;55.684;37.928;2022-12-07T05:26:37;22.43;;;10.17;;
28509;SDS011;15723;55.684;37.928;2022-12-07T05:29:03;29.03;;;11.63;;
28509;SDS011;15723;55.684;37.928;2022-12-07T05:31:29;30.03;;;11.37;;
28509;SDS011;15723;55.684;37.928;2022-12-07T05:33:55;22.83;;;9.60;;
28509;SDS011;15723;55.684;37.928;2022-12-07T05:36:22;25.70;;;9.27;;
28509;SDS011;15723;55.684;37.928;2022-12-07T05:38:48;25.70;;;10.97;;
28509;SDS011;15723;55.684;37.928;2022-12-07T05:41:16;24.97;;;11.43;;
28509;SDS011;15723;55.684;37.928;2022-12-07T05:44:02;27.27;;;11.17;;
28509;SDS011;15723;55.684;37.928;2022-12-07T05:46:29;24.20;;;10.57;;
28509;SDS011;15723;55.684;37.928;2022-12-07T05:48:55;25.30;;;9.60;;
28509;SDS011;15723;55.684;37.928;2022-12-07T05:51:21;23.97;;;10.07;;
28509;SDS011;15723;55.684;37.928;2022-12-07T05:53:48;25.17;;;9.80;;
28509;SDS011;15723;55.684;37.928;2022-12-07T05:56:15;22.73;;;10.20;;
28509;SDS011;15723;55.684;37.928;2022-12-07T05:58:41;20.83;;;9.80;;
28509;SDS011;15723;55.684;37.928;2022-12-07T06:01:26;21.63;;;9.93;;
28509;SDS011;15723;55.684;37.928;2022-12-07T06:03:53;24.77;;;10.20;;
28509;SDS011;15723;55.684;37.928;2022-12-07T06:06:19;25.98;;;11.60;;
28509;SDS011;15723;55.684;37.928;2022-12-07T06:08:45;37.57;;;14.23;;
28509;SDS011;15723;55.684;37.928;2022-12-07T06:11:11;24.58;;;11.30;;
28509;SDS011;15723;55.684;37.928;2022-12-07T06:13:56;18.83;;;9.05;;
28509;SDS011;15723;55.684;37.928;2022-12-07T06:16:22;17.63;;;8.50;;
28509;SDS011;15723;55.684;37.928;2022-12-07T06:18:48;19.83;;;8.93;;
28509;SDS011;15723;55.684;37.928;2022-12-07T06:21:14;22.63;;;8.85;;
28509;SDS011;15723;55.684;37.928;2022-12-07T06:23:40;16.42;;;9.15;;
28509;SDS011;15723;55.684;37.928;2022-12-07T06:26:07;18.52;;;8.88;;
28509;SDS011;15723;55.684;37.928;2022-12-07T06:28:33;26.65;;;10.38;;
28509;SDS011;15723;55.684;37.928;2022-12-07T06:31:00;19.35;;;9.35;;
28509;SDS011;15723;55.684;37.928;2022-12-07T06:33:27;16.80;;;8.20;;
28509;SDS011;15723;55.684;37.928;2022-12-07T06:35:54;20.13;;;9.45;;
28509;SDS011;15723;55.684;37.928;2022-12-07T06:38:20;18.40;;;10.57;;
28509;SDS011;15723;55.684;37.928;2022-12-07T06:40:47;18.10;;;8.95;;
28509;SDS011;15723;55.684;37.928;2022-12-07T06:43:13;16.58;;;9.35;;
28509;SDS011;15723;55.684;37.928;2022-12-07T06:45:42;19.08;;;10.43;;
28509;SDS011;15723;55.684;37.928;2022-12-07T06:48:08;21.48;;;10.32;;
28509;SDS011;15723;55.684;37.928;2022-12-07T06:50:35;21.52;;;10.68;;
28509;SDS011;15723;55.684;37.928;2022-12-07T06:53:01;17.70;;;8.68;;
28509;SDS011;15723;55.684;37.928;2022-12-07T06:55:27;19.95;;;9.52;;
28509;SDS011;15723;55.684;37.928;2022-12-07T06:57:53;19.75;;;9.60;;
28509;SDS011;15723;55.684;37.928;2022-12-07T07:00:19;17.23;;;8.50;;
28509;SDS011;15723;55.684;37.928;2022-12-07T07:02:46;17.85;;;8.35;;
28509;SDS011;15723;55.684;37.928;2022-12-07T07:05:12;17.00;;;8.82;;
28509;SDS011;15723;55.684;37.928;2022-12-07T07:07:38;16.38;;;9.25;;
28509;SDS011;15723;55.684;37.928;2022-12-07T07:10:04;20.52;;;10.43;;
28509;SDS011;15723;55.684;37.928;2022-12-07T07:12:31;24.33;;;10.07;;
28509;SDS011;15723;55.684;37.928;2022-12-07T07:14:57;24.42;;;11.18;;
28509;SDS011;15723;55.684;37.928;2022-12-07T07:17:23;22.38;;;10.55;;
28509;SDS011;15723;55.684;37.928;2022-12-07T07:19:49;19.83;;;9.70;;
28509;SDS011;15723;55.684;37.928;2022-12-07T07:22:15;17.92;;;10.48;;
28509;SDS011;15723;55.684;37.928;2022-12-07T07:24:41;18.00;;;10.35;;
28509;SDS011;15723;55.684;37.928;2022-12-07T07:27:07;14.18;;;8.85;;
28509;SDS011;15723;55.684;37.928;2022-12-07T07:29:34;21.00;;;11.02;;
28509;SDS011;15723;55.684;37.928;2022-12-07T07:32:00;24.60;;;10.85;;
28509;SDS011;15723;55.684;37.928;2022-12-07T07:34:26;23.05;;;11.18;;
28509;SDS011;15723;55.684;37.928;2022-12-07T07:36:53;22.02;;;9.65;;
28509;SDS011;15723;55.684;37.928;2022-12-07T07:39:19;17.92;;;9.02;;
28509;SDS011;15723;55.684;37.928;2022-12-07T07:41:45;18.23;;;9.50;;
28509;SDS011;15723;55.684;37.928;2022-12-07T07:44:18;23.42;;;10.68;;
28509;SDS011;15723;55.684;37.928;2022-12-07T07:46:44;18.17;;;9.95;;
28509;SDS011;15723;55.684;37.928;2022-12-07T07:49:10;22.75;;;10.00;;
28509;SDS011;15723;55.684;37.928;2022-12-07T07:51:36;18.70;;;11.00;;
28509;SDS011;15723;55.684;37.928;2022-12-07T07:54:02;17.80;;;10.10;;
28509;SDS011;15723;55.684;37.928;2022-12-07T07:56:29;18.67;;;10.48;;
28509;SDS011;15723;55.684;37.928;2022-12-07T07:58:55;19.85;;;11.13;;
28509;SDS011;15723;55.684;37.928;2022-12-07T08:01:22;17.27;;;10.48;;
28509;SDS011;15723;55.684;37.928;2022-12-07T08:03:48;19.58;;;10.57;;
28509;SDS011;15723;55.684;37.928;2022-12-07T08:06:14;15.70;;;10.25;;
28509;SDS011;15723;55.684;37.928;2022-12-07T08:08:40;20.08;;;9.93;;
28509;SDS011;15723;55.684;37.928;2022-12-07T08:11:08;22.55;;;11.43;;
28509;SDS011;15723;55.684;37.928;2022-12-07T08:13:35;17.45;;;10.57;;
28509;SDS011;15723;55.684;37.928;2022-12-07T08:16:05;17.95;;;10.25;;
28509;SDS011;15723;55.684;37.928;2022-12-07T08:18:43;15.60;;;9.13;;
28509;SDS011;15723;55.684;37.928;2022-12-07T08:21:10;19.15;;;9.73;;
28509;SDS011;15723;55.684;37.928;2022-12-07T08:23:38;16.17;;;10.70;;
28509;SDS011;15723;55.684;37.928;2022-12-07T08:26:05;20.02;;;9.50;;
28509;SDS011;15723;55.684;37.928;2022-12-07T08:28:33;17.10;;;9.85;;
28509;SDS011;15723;55.684;37.928;2022-12-07T08:31:00;21.00;;;9.75;;
28509;SDS011;15723;55.684;37.928;2022-12-07T08:33:27;16.13;;;9.73;;
28509;SDS011;15723;55.684;37.928;2022-12-07T08:35:53;17.38;;;8.55;;
28509;SDS011;15723;55.684;37.928;2022-12-07T08:38:19;20.98;;;10.65;;
28509;SDS011;15723;55.684;37.928;2022-12-07T08:40:55;21.10;;;9.43;;
28509;SDS011;15723;55.684;37.928;2022-12-07T08:43:22;19.75;;;10.25;;
28509;SDS011;15723;55.684;37.928;2022-12-07T08:48:48;14.60;;;8.10;;
28509;SDS011;15723;55.684;37.928;2022-12-07T08:51:19;15.50;;;8.73;;
28509;SDS011;15723;55.684;37.928;2022-12-07T08:53:47;17.67;;;9.82;;
28509;SDS011;15723;55.684;37.928;2022-12-07T08:56:14;14.82;;;7.88;;
28509;SDS011;15723;55.684;37.928;2022-12-07T08:58:41;11.95;;;6.65;;
28509;SDS011;15723;55.684;37.928;2022-12-07T09:01:10;13.73;;;7.57;;
28509;SDS011;15723;55.684;37.928;2022-12-07T09:03:36;17.38;;;7.93;;
28509;SDS011;15723;55.684;37.928;2022-12-07T09:06:03;17.15;;;7.80;;
28509;SDS011;15723;55.684;37.928;2022-12-07T09:08:39;18.13;;;8.65;;
28509;SDS011;15723;55.684;37.928;2022-12-07T09:11:11;13.50;;;7.32;;
28509;SDS011;15723;55.684;37.928;2022-12-07T09:13:37;19.23;;;8.15;;
28509;SDS011;15723;55.684;37.928;2022-12-07T09:16:03;20.33;;;9.95;;
28509;SDS011;15723;55.684;37.928;2022-12-07T09:18:30;17.80;;;7.57;;
28509;SDS011;15723;55.684;37.928;2022-12-07T09:20:56;14.55;;;7.35;;
28509;SDS011;15723;55.684;37.928;2022-12-07T09:23:22;15.07;;;8.10;;
28509;SDS011;15723;55.684;37.928;2022-12-07T09:25:49;14.85;;;7.80;;
28509;SDS011;15723;55.684;37.928;2022-12-07T09:28:15;13.00;;;6.85;;
28509;SDS011;15723;55.684;37.928;2022-12-07T09:30:48;13.90;;;7.30;;
28509;SDS011;15723;55.684;37.928;2022-12-07T09:33:14;16.85;;;8.63;;
28509;SDS011;15723;55.684;37.928;2022-12-07T09:35:47;16.75;;;7.82;;
28509;SDS011;15723;55.684;37.928;2022-12-07T09:38:15;21.70;;;9.98;;
28509;SDS011;15723;55.684;37.928;2022-12-07T09:40:42;17.98;;;8.75;;
28509;SDS011;15723;55.684;37.928;2022-12-07T09:43:18;16.30;;;8.27;;
28509;SDS011;15723;55.684;37.928;2022-12-07T09:45:48;14.75;;;7.40;;
28509;SDS011;15723;55.684;37.928;2022-12-07T09:48:30;18.35;;;8.57;;
28509;SDS011;15723;55.684;37.928;2022-12-07T09:51:02;14.43;;;7.07;;
28509;SDS011;15723;55.684;37.928;2022-12-07T09:53:38;16.95;;;8.43;;
28509;SDS011;15723;55.684;37.928;2022-12-07T09:56:05;21.33;;;9.25;;
28509;SDS011;15723;55.684;37.928;2022-12-07T09:58:32;13.10;;;7.07;;
28509;SDS011;15723;55.684;37.928;2022-12-07T10:01:17;14.90;;;7.25;;
28509;SDS011;15723;55.684;37.928;2022-12-07T10:03:52;16.08;;;7.07;;
28509;SDS011;15723;55.684;37.928;2022-12-07T10:06:21;17.13;;;7.07;;
28509;SDS011;15723;55.684;37.928;2022-12-07T10:08:47;13.27;;;6.57;;
28509;SDS011;15723;55.684;37.928;2022-12-07T10:11:13;10.25;;;5.90;;
28509;SDS011;15723;55.684;37.928;2022-12-07T10:13:46;14.25;;;7.40;;
28509;SDS011;15723;55.684;37.928;2022-12-07T10:18:49;14.60;;;6.95;;
28509;SDS011;15723;55.684;37.928;2022-12-07T10:21:18;13.18;;;6.50;;
28509;SDS011;15723;55.684;37.928;2022-12-07T10:29:12;12.77;;;5.63;;
28509;SDS011;15723;55.684;37.928;2022-12-07T10:31:40;11.48;;;5.57;;
28509;SDS011;15723;55.684;37.928;2022-12-07T10:34:41;12.52;;;6.40;;
28509;SDS011;15723;55.684;37.928;2022-12-07T10:39:46;13.43;;;6.57;;
28509;SDS011;15723;55.684;37.928;2022-12-07T10:42:24;15.23;;;6.05;;
28509;SDS011;15723;55.684;37.928;2022-12-07T10:47:48;19.90;;;7.32;;
28509;SDS011;15723;55.684;37.928;2022-12-07T10:53:34;15.82;;;7.35;;
28509;SDS011;15723;55.684;37.928;2022-12-07T11:06:54;14.88;;;7.10;;
28509;SDS011;15723;55.684;37.928;2022-12-07T11:09:46;13.27;;;6.88;;
28509;SDS011;15723;55.684;37.928;2022-12-07T11:15:27;15.55;;;7.20;;
28509;SDS011;15723;55.684;37.928;2022-12-07T11:24:15;17.83;;;7.93;;
28509;SDS011;15723;55.684;37.928;2022-12-07T11:29:38;14.00;;;6.80;;
28509;SDS011;15723;55.684;37.928;2022-12-07T11:32:34;15.48;;;7.55;;
28509;SDS011;15723;55.684;37.928;2022-12-07T11:35:11;14.48;;;7.18;;
28509;SDS011;15723;55.684;37.928;2022-12-07T11:37:40;17.27;;;8.05;;
28509;SDS011;15723;55.684;37.928;2022-12-07T11:46:00;15.23;;;7.18;;
28509;SDS011;15723;55.684;37.928;2022-12-07T11:48:33;15.25;;;8.25;;
28509;SDS011;15723;55.684;37.928;2022-12-07T11:51:04;18.75;;;7.95;;
28509;SDS011;15723;55.684;37.928;2022-12-07T11:53:35;15.70;;;8.60;;
28509;SDS011;15723;55.684;37.928;2022-12-07T12:20:57;21.05;;;9.93;;
28509;SDS011;15723;55.684;37.928;2022-12-07T12:26:19;20.27;;;8.98;;
28509;SDS011;15723;55.684;37.928;2022-12-07T12:33:52;27.10;;;9.90;;
28509;SDS011;15723;55.684;37.928;2022-12-07T12:38:51;29.15;;;11.85;;
28509;SDS011;15723;55.684;37.928;2022-12-07T12:47:38;28.98;;;11.00;;
28509;SDS011;15723;55.684;37.928;2022-12-07T12:50:12;26.35;;;10.18;;
28509;SDS011;15723;55.684;37.928;2022-12-07T12:55:17;29.35;;;9.35;;
28509;SDS011;15723;55.684;37.928;2022-12-07T13:00:49;22.90;;;11.07;;
28509;SDS011;15723;55.684;37.928;2022-12-07T13:03:53;24.25;;;10.50;;
28509;SDS011;15723;55.684;37.928;2022-12-07T13:08:50;20.13;;;10.48;;
28509;SDS011;15723;55.684;37.928;2022-12-07T13:11:36;19.92;;;10.00;;
28509;SDS011;15723;55.684;37.928;2022-12-07T13:17:11;24.63;;;10.85;;
28509;SDS011;15723;55.684;37.928;2022-12-07T13:20:05;21.77;;;10.75;;
28509;SDS011;15723;55.684;37.928;2022-12-07T13:27:44;24.50;;;11.00;;
28509;SDS011;15723;55.684;37.928;2022-12-07T13:30:19;22.27;;;10.50;;
28509;SDS011;15723;55.684;37.928;2022-12-07T13:32:57;18.87;;;10.13;;
28509;SDS011;15723;55.684;37.928;2022-12-07T13:35:28;25.25;;;10.55;;
28509;SDS011;15723;55.684;37.928;2022-12-07T13:37:55;21.15;;;10.82;;
28509;SDS011;15723;55.684;37.928;2022-12-07T13:40:21;23.85;;;10.70;;
28509;SDS011;15723;55.684;37.928;2022-12-07T13:42:56;24.95;;;10.10;;
28509;SDS011;15723;55.684;37.928;2022-12-07T13:45:30;27.25;;;10.80;;
28509;SDS011;15723;55.684;37.928;2022-12-07T13:48:15;26.45;;;12.05;;
28509;SDS011;15723;55.684;37.928;2022-12-07T13:50:56;29.05;;;10.68;;
28509;SDS011;15723;55.684;37.928;2022-12-07T13:53:24;25.52;;;10.30;;
28509;SDS011;15723;55.684;37.928;2022-12-07T13:55:56;25.85;;;11.05;;
28509;SDS011;15723;55.684;37.928;2022-12-07T13:58:27;21.17;;;10.23;;
28509;SDS011;15723;55.684;37.928;2022-12-07T14:00:57;31.27;;;12.10;;
28509;SDS011;15723;55.684;37.928;2022-12-07T14:03:25;28.33;;;12.55;;
28509;SDS011;15723;55.684;37.928;2022-12-07T14:08:41;22.98;;;10.68;;
28509;SDS011;15723;55.684;37.928;2022-12-07T14:11:10;18.98;;;9.63;;
28509;SDS011;15723;55.684;37.928;2022-12-07T14:13:50;29.37;;;11.53;;
28509;SDS011;15723;55.684;37.928;2022-12-07T14:16:33;27.50;;;12.20;;
28509;SDS011;15723;55.684;37.928;2022-12-07T14:19:03;20.80;;;11.10;;
28509;SDS011;15723;55.684;37.928;2022-12-07T14:21:32;26.93;;;10.40;;
28509;SDS011;15723;55.684;37.928;2022-12-07T14:24:09;26.80;;;10.35;;
28509;SDS011;15723;55.684;37.928;2022-12-07T14:26:47;24.33;;;11.25;;
28509;SDS011;15723;55.684;37.928;2022-12-07T14:29:22;23.37;;;10.67;;
28509;SDS011;15723;55.684;37.928;2022-12-07T14:31:51;25.93;;;10.70;;
28509;SDS011;15723;55.684;37.928;2022-12-07T14:34:22;29.13;;;13.55;;
28509;SDS011;15723;55.684;37.928;2022-12-07T14:36:49;22.17;;;10.90;;
28509;SDS011;15723;55.684;37.928;2022-12-07T14:39:15;27.33;;;12.10;;
28509;SDS011;15723;55.684;37.928;2022-12-07T14:41:41;28.90;;;11.70;;
28509;SDS011;15723;55.684;37.928;2022-12-07T14:44:17;26.97;;;12.43;;
28509;SDS011;15723;55.684;37.928;2022-12-07T14:46:46;28.30;;;12.43;;
28509;SDS011;15723;55.684;37.928;2022-12-07T14:49:12;26.60;;;11.83;;
28509;SDS011;15723;55.684;37.928;2022-12-07T14:51:39;31.23;;;13.20;;
28509;SDS011;15723;55.684;37.928;2022-12-07T14:54:11;24.60;;;11.10;;
28509;SDS011;15723;55.684;37.928;2022-12-07T14:56:42;28.17;;;12.00;;
28509;SDS011;15723;55.684;37.928;2022-12-07T14:59:09;21.50;;;11.23;;
28509;SDS011;15723;55.684;37.928;2022-12-07T15:01:36;23.90;;;10.97;;
28509;SDS011;15723;55.684;37.928;2022-12-07T15:04:03;25.67;;;12.00;;
28509;SDS011;15723;55.684;37.928;2022-12-07T15:06:29;22.65;;;11.23;;
28509;SDS011;15723;55.684;37.928;2022-12-07T15:08:55;24.80;;;10.73;;
28509;SDS011;15723;55.684;37.928;2022-12-07T15:11:21;20.43;;;10.57;;
28509;SDS011;15723;55.684;37.928;2022-12-07T15:13:47;26.73;;;12.03;;
28509;SDS011;15723;55.684;37.928;2022-12-07T15:16:32;24.93;;;11.20;;
28509;SDS011;15723;55.684;37.928;2022-12-07T15:18:59;22.03;;;10.70;;
28509;SDS011;15723;55.684;37.928;2022-12-07T15:21:25;21.97;;;10.77;;
28509;SDS011;15723;55.684;37.928;2022-12-07T15:23:51;27.97;;;12.30;;
28509;SDS011;15723;55.684;37.928;2022-12-07T15:26:17;26.57;;;11.37;;
28509;SDS011;15723;55.684;37.928;2022-12-07T15:28:43;27.23;;;11.87;;
28509;SDS011;15723;55.684;37.928;2022-12-07T15:31:15;23.63;;;10.27;;
28509;SDS011;15723;55.684;37.928;2022-12-07T15:33:43;27.50;;;12.60;;
28509;SDS011;15723;55.684;37.928;2022-12-07T15:36:15;25.67;;;10.77;;
28509;SDS011;15723;55.684;37.928;2022-12-07T15:38:47;24.00;;;10.93;;
28509;SDS011;15723;55.684;37.928;2022-12-07T15:41:13;23.80;;;10.43;;
28509;SDS011;15723;55.684;37.928;2022-12-07T15:43:39;27.97;;;10.67;;
28509;SDS011;15723;55.684;37.928;2022-12-07T15:46:28;23.87;;;11.27;;
28509;SDS011;15723;55.684;37.928;2022-12-07T15:48:56;23.45;;;10.57;;
28509;SDS011;15723;55.684;37.928;2022-12-07T15:51:22;24.97;;;10.03;;
28509;SDS011;15723;55.684;37.928;2022-12-07T15:53:48;24.67;;;10.80;;
28509;SDS011;15723;55.684;37.928;2022-12-07T15:56:14;28.20;;;11.73;;
28509;SDS011;15723;55.684;37.928;2022-12-07T15:58:40;25.27;;;10.37;;
28509;SDS011;15723;55.684;37.928;2022-12-07T16:01:10;24.77;;;10.40;;
28509;SDS011;15723;55.684;37.928;2022-12-07T16:03:37;22.83;;;10.60;;
28509;SDS011;15723;55.684;37.928;2022-12-07T16:06:04;23.03;;;11.33;;
28509;SDS011;15723;55.684;37.928;2022-12-07T16:08:30;23.63;;;10.23;;
28509;SDS011;15723;55.684;37.928;2022-12-07T16:10:56;23.63;;;10.47;;
28509;SDS011;15723;55.684;37.928;2022-12-07T16:13:23;20.93;;;10.03;;
28509;SDS011;15723;55.684;37.928;2022-12-07T16:15:49;23.63;;;10.83;;
28509;SDS011;15723;55.684;37.928;2022-12-07T16:18:15;21.13;;;10.03;;
28509;SDS011;15723;55.684;37.928;2022-12-07T16:20:41;20.13;;;9.10;;
28509;SDS011;15723;55.684;37.928;2022-12-07T16:23:07;21.47;;;9.80;;
28509;SDS011;15723;55.684;37.928;2022-12-07T16:25:33;20.60;;;9.07;;
28509;SDS011;15723;55.684;37.928;2022-12-07T16:28:00;23.60;;;10.43;;
28509;SDS011;15723;55.684;37.928;2022-12-07T16:30:26;17.40;;;9.17;;
28509;SDS011;15723;55.684;37.928;2022-12-07T16:32:52;27.70;;;11.07;;
28509;SDS011;15723;55.684;37.928;2022-12-07T16:35:18;18.70;;;9.53;;
28509;SDS011;15723;55.684;37.928;2022-12-07T16:37:44;25.77;;;10.87;;
28509;SDS011;15723;55.684;37.928;2022-12-07T16:40:10;22.93;;;10.63;;
28509;SDS011;15723;55.684;37.928;2022-12-07T16:42:38;21.33;;;9.77;;
28509;SDS011;15723;55.684;37.928;2022-12-07T16:45:04;18.03;;;8.70;;